Trinity, North Carolina
Current Conditions -  °F | °C
As of 1:54 PM on Tuesday 27 Jan 2015 (Local Time) from KGSO Reporting Station
Few Clouds Few Clouds  
Wind Chill: 38°   Ceiling: Unl
Heat Index: 43°   Visibility: 10mi
Dew Point:   Wind: 9mph
Humidity: 25%   Direction: 350°N
Pressure: 29.79"   Gusts: 17mph
Location:  35.89°N, 79.99°W
Report Text: KGSO 271854Z 35008G15KT 10SM FEW050 06/M13 A2979 RMK AO2 SLP091 T00611128
Loading
Personal Weather Stations






























Interactive Weather Map New forecast layout! Learn more

10-Day Weather Forecast

Advertisements
Track Severe Weather on mobile